sensor_id;sensor_type;location;lat;lon;timestamp;pressure;altitude;pressure_sealevel;temperature;humidity
68226;BME280;55045;49.410;11.030;2023-03-17T00:01:17;98069.50;;;1.09;100.00
68226;BME280;55045;49.410;11.030;2023-03-17T00:04:22;98056.03;;;0.96;100.00
68226;BME280;55045;49.410;11.030;2023-03-17T00:07:27;98059.47;;;0.91;100.00
68226;BME280;55045;49.410;11.030;2023-03-17T00:10:30;98058.66;;;0.89;100.00
68226;BME280;55045;49.410;11.030;2023-03-17T00:13:34;98053.63;;;0.79;100.00
68226;BME280;55045;49.410;11.030;2023-03-17T00:16:38;98055.38;;;1.50;100.00
68226;BME280;55045;49.410;11.030;2023-03-17T00:19:43;98042.41;;;1.62;100.00
68226;BME280;55045;49.410;11.030;2023-03-17T00:22:48;98052.31;;;1.22;100.00
68226;BME280;55045;49.410;11.030;2023-03-17T00:25:52;98050.56;;;1.25;100.00
68226;BME280;55045;49.410;11.030;2023-03-17T00:28:55;98040.59;;;1.70;100.00
68226;BME280;55045;49.410;11.030;2023-03-17T00:31:58;98045.69;;;1.71;100.00
68226;BME280;55045;49.410;11.030;2023-03-17T00:35:02;98036.00;;;1.93;100.00
68226;BME280;55045;49.410;11.030;2023-03-17T00:38:13;98036.84;;;1.92;100.00
68226;BME280;55045;49.410;11.030;2023-03-17T00:41:17;98030.13;;;1.88;100.00
68226;BME280;55045;49.410;11.030;2023-03-17T00:44:23;98022.50;;;1.84;100.00
68226;BME280;55045;49.410;11.030;2023-03-17T00:47:26;98018.91;;;1.97;100.00
68226;BME280;55045;49.410;11.030;2023-03-17T00:50:29;98013.75;;;1.98;100.00
68226;BME280;55045;49.410;11.030;2023-03-17T00:53:37;98008.16;;;1.75;100.00
68226;BME280;55045;49.410;11.030;2023-03-17T00:56:42;98011.38;;;1.88;100.00
68226;BME280;55045;49.410;11.030;2023-03-17T00:59:46;98000.22;;;1.92;100.00
68226;BME280;55045;49.410;11.030;2023-03-17T01:02:50;97994.22;;;1.93;100.00
68226;BME280;55045;49.410;11.030;2023-03-17T01:05:54;97999.06;;;1.56;100.00
68226;BME280;55045;49.410;11.030;2023-03-17T01:09:00;97998.91;;;1.66;100.00
68226;BME280;55045;49.410;11.030;2023-03-17T01:12:05;97986.59;;;1.91;100.00
68226;BME280;55045;49.410;11.030;2023-03-17T01:15:09;97979.72;;;1.93;100.00
68226;BME280;55045;49.410;11.030;2023-03-17T01:18:15;97972.81;;;2.00;100.00
68226;BME280;55045;49.410;11.030;2023-03-17T01:21:19;97970.22;;;2.01;100.00
68226;BME280;55045;49.410;11.030;2023-03-17T01:24:24;97966.59;;;2.15;100.00
68226;BME280;55045;49.410;11.030;2023-03-17T01:27:33;97972.75;;;2.03;100.00
68226;BME280;55045;49.410;11.030;2023-03-17T01:30:39;97931.59;;;1.66;100.00
68226;BME280;55045;49.410;11.030;2023-03-17T01:33:42;97977.16;;;1.95;100.00
68226;BME280;55045;49.410;11.030;2023-03-17T01:36:45;97973.19;;;1.77;100.00
68226;BME280;55045;49.410;11.030;2023-03-17T01:39:50;97970.94;;;2.10;100.00
68226;BME280;55045;49.410;11.030;2023-03-17T01:43:00;97963.63;;;1.88;100.00
68226;BME280;55045;49.410;11.030;2023-03-17T01:46:24;97958.63;;;1.81;100.00
68226;BME280;55045;49.410;11.030;2023-03-17T01:49:31;97956.00;;;1.84;100.00
68226;BME280;55045;49.410;11.030;2023-03-17T01:52:36;97953.34;;;1.91;100.00
68226;BME280;55045;49.410;11.030;2023-03-17T01:55:42;97953.44;;;1.85;100.00
68226;BME280;55045;49.410;11.030;2023-03-17T01:58:50;97948.22;;;1.91;100.00
68226;BME280;55045;49.410;11.030;2023-03-17T02:01:57;97954.31;;;1.83;100.00
68226;BME280;55045;49.410;11.030;2023-03-17T02:05:03;97949.03;;;1.93;100.00
68226;BME280;55045;49.410;11.030;2023-03-17T02:08:09;97955.56;;;2.11;100.00
68226;BME280;55045;49.410;11.030;2023-03-17T02:11:15;97954.28;;;1.86;100.00
68226;BME280;55045;49.410;11.030;2023-03-17T02:14:18;97948.34;;;1.85;100.00
68226;BME280;55045;49.410;11.030;2023-03-17T02:17:24;97935.69;;;1.76;100.00
68226;BME280;55045;49.410;11.030;2023-03-17T02:24:17;97937.44;;;1.72;100.00
68226;BME280;55045;49.410;11.030;2023-03-17T02:27:26;97935.56;;;1.85;100.00
68226;BME280;55045;49.410;11.030;2023-03-17T02:30:33;97929.00;;;1.09;100.00
68226;BME280;55045;49.410;11.030;2023-03-17T02:33:37;97929.56;;;1.29;100.00
68226;BME280;55045;49.410;11.030;2023-03-17T02:36:41;97918.16;;;1.52;100.00
68226;BME280;55045;49.410;11.030;2023-03-17T02:39:46;97928.84;;;1.21;100.00
68226;BME280;55045;49.410;11.030;2023-03-17T02:42:50;97923.66;;;1.27;100.00
68226;BME280;55045;49.410;11.030;2023-03-17T02:45:53;97925.06;;;1.47;100.00
68226;BME280;55045;49.410;11.030;2023-03-17T02:48:56;97914.47;;;1.71;100.00
68226;BME280;55045;49.410;11.030;2023-03-17T02:52:00;97919.72;;;1.62;100.00
68226;BME280;55045;49.410;11.030;2023-03-17T02:55:05;97924.78;;;1.06;100.00
68226;BME280;55045;49.410;11.030;2023-03-17T02:58:09;97925.81;;;0.92;100.00
68226;BME280;55045;49.410;11.030;2023-03-17T03:01:12;97925.84;;;0.93;100.00
68226;BME280;55045;49.410;11.030;2023-03-17T03:04:17;97924.16;;;0.89;100.00
68226;BME280;55045;49.410;11.030;2023-03-17T03:07:21;97910.13;;;1.19;100.00
68226;BME280;55045;49.410;11.030;2023-03-17T03:10:26;97917.38;;;1.48;100.00
68226;BME280;55045;49.410;11.030;2023-03-17T03:13:29;97925.25;;;1.36;100.00
68226;BME280;55045;49.410;11.030;2023-03-17T03:16:33;97910.06;;;1.25;100.00
68226;BME280;55045;49.410;11.030;2023-03-17T03:19:37;97920.91;;;1.39;100.00
68226;BME280;55045;49.410;11.030;2023-03-17T03:22:40;97917.22;;;0.99;100.00
68226;BME280;55045;49.410;11.030;2023-03-17T03:25:45;97922.81;;;1.27;100.00
68226;BME280;55045;49.410;11.030;2023-03-17T03:28:48;97926.97;;;1.32;100.00
68226;BME280;55045;49.410;11.030;2023-03-17T03:31:51;97916.91;;;1.22;100.00
68226;BME280;55045;49.410;11.030;2023-03-17T03:34:55;97910.81;;;1.32;100.00
68226;BME280;55045;49.410;11.030;2023-03-17T03:37:58;97921.16;;;1.21;100.00
68226;BME280;55045;49.410;11.030;2023-03-17T03:41:03;97916.06;;;1.21;100.00
68226;BME280;55045;49.410;11.030;2023-03-17T03:44:07;97922.03;;;1.23;100.00
68226;BME280;55045;49.410;11.030;2023-03-17T03:47:10;97908.56;;;1.10;100.00
68226;BME280;55045;49.410;11.030;2023-03-17T03:50:14;97889.97;;;0.99;100.00
68226;BME280;55045;49.410;11.030;2023-03-17T03:53:17;97823.00;;;0.82;100.00
68226;BME280;55045;49.410;11.030;2023-03-17T03:56:23;97902.59;;;1.10;100.00
68226;BME280;55045;49.410;11.030;2023-03-17T03:59:26;97892.38;;;1.10;100.00
68226;BME280;55045;49.410;11.030;2023-03-17T04:02:30;97896.75;;;1.60;100.00
68226;BME280;55045;49.410;11.030;2023-03-17T04:05:33;97902.59;;;0.44;100.00
68226;BME280;55045;49.410;11.030;2023-03-17T04:08:37;97903.38;;;0.50;100.00
68226;BME280;55045;49.410;11.030;2023-03-17T04:11:41;97910.38;;;1.04;100.00
68226;BME280;55045;49.410;11.030;2023-03-17T04:14:44;97899.47;;;0.90;100.00
68226;BME280;55045;49.410;11.030;2023-03-17T04:17:48;97905.34;;;0.98;100.00
68226;BME280;55045;49.410;11.030;2023-03-17T04:20:51;97899.78;;;1.28;100.00
68226;BME280;55045;49.410;11.030;2023-03-17T04:23:54;97897.75;;;0.93;100.00
68226;BME280;55045;49.410;11.030;2023-03-17T04:26:59;97897.75;;;0.93;100.00
68226;BME280;55045;49.410;11.030;2023-03-17T04:30:02;97850.50;;;0.62;100.00
68226;BME280;55045;49.410;11.030;2023-03-17T04:34:16;97866.38;;;0.83;100.00
68226;BME280;55045;49.410;11.030;2023-03-17T04:37:20;97882.47;;;0.89;100.00
68226;BME280;55045;49.410;11.030;2023-03-17T04:40:23;97887.22;;;1.14;100.00
68226;BME280;55045;49.410;11.030;2023-03-17T04:43:26;97879.28;;;1.31;100.00
68226;BME280;55045;49.410;11.030;2023-03-17T04:46:29;97880.78;;;0.88;100.00
68226;BME280;55045;49.410;11.030;2023-03-17T04:49:34;97872.41;;;0.78;100.00
68226;BME280;55045;49.410;11.030;2023-03-17T04:52:37;97875.22;;;0.58;100.00
68226;BME280;55045;49.410;11.030;2023-03-17T04:55:41;97877.34;;;0.22;100.00
68226;BME280;55045;49.410;11.030;2023-03-17T04:58:44;97880.75;;;0.21;100.00
68226;BME280;55045;49.410;11.030;2023-03-17T05:01:47;97880.84;;;0.14;100.00
68226;BME280;55045;49.410;11.030;2023-03-17T05:04:52;97891.34;;;0.62;100.00
68226;BME280;55045;49.410;11.030;2023-03-17T05:07:55;97895.84;;;0.40;100.00
68226;BME280;55045;49.410;11.030;2023-03-17T05:10:59;97901.81;;;0.37;100.00
68226;BME280;55045;49.410;11.030;2023-03-17T05:14:02;97880.16;;;0.70;100.00
68226;BME280;55045;49.410;11.030;2023-03-17T05:17:05;97877.84;;;0.53;100.00
68226;BME280;55045;49.410;11.030;2023-03-17T05:20:11;97877.00;;;0.53;100.00
68226;BME280;55045;49.410;11.030;2023-03-17T05:23:15;97864.94;;;0.64;100.00
68226;BME280;55045;49.410;11.030;2023-03-17T05:26:18;97874.38;;;0.57;100.00
68226;BME280;55045;49.410;11.030;2023-03-17T05:29:22;97875.88;;;0.71;100.00
68226;BME280;55045;49.410;11.030;2023-03-17T05:32:25;97884.66;;;0.50;100.00
68226;BME280;55045;49.410;11.030;2023-03-17T05:35:29;97886.47;;;0.43;100.00
68226;BME280;55045;49.410;11.030;2023-03-17T05:38:33;97876.78;;;0.68;100.00
68226;BME280;55045;49.410;11.030;2023-03-17T05:41:36;97882.03;;;0.57;100.00
68226;BME280;55045;49.410;11.030;2023-03-17T05:44:39;97875.09;;;0.67;100.00
68226;BME280;55045;49.410;11.030;2023-03-17T05:47:42;97876.72;;;0.71;100.00
68226;BME280;55045;49.410;11.030;2023-03-17T05:50:48;97880.94;;;0.77;100.00
68226;BME280;55045;49.410;11.030;2023-03-17T05:53:51;97861.56;;;0.62;100.00
68226;BME280;55045;49.410;11.030;2023-03-17T05:56:55;97875.75;;;0.81;100.00
68226;BME280;55045;49.410;11.030;2023-03-17T05:59:58;97871.53;;;0.11;100.00
68226;BME280;55045;49.410;11.030;2023-03-17T06:03:01;97883.63;;;-0.09;100.00
68226;BME280;55045;49.410;11.030;2023-03-17T06:06:06;97869.41;;;0.45;100.00
68226;BME280;55045;49.410;11.030;2023-03-17T06:09:10;97864.31;;;0.45;100.00
68226;BME280;55045;49.410;11.030;2023-03-17T06:12:13;97865.00;;;0.58;100.00
68226;BME280;55045;49.410;11.030;2023-03-17T06:15:16;97854.03;;;0.51;100.00
68226;BME280;55045;49.410;11.030;2023-03-17T06:18:20;97858.53;;;0.97;100.00
68226;BME280;55045;49.410;11.030;2023-03-17T06:21:24;97862.56;;;1.12;100.00
68226;BME280;55045;49.410;11.030;2023-03-17T06:24:28;97851.47;;;1.14;100.00
68226;BME280;55045;49.410;11.030;2023-03-17T06:27:31;97826.78;;;1.15;100.00
68226;BME280;55045;49.410;11.030;2023-03-17T06:30:35;97826.44;;;1.36;100.00
68226;BME280;55045;49.410;11.030;2023-03-17T06:33:41;97845.00;;;1.46;100.00
68226;BME280;55045;49.410;11.030;2023-03-17T06:36:46;97831.19;;;1.58;100.00
68226;BME280;55045;49.410;11.030;2023-03-17T06:39:50;97833.94;;;1.93;100.00
68226;BME280;55045;49.410;11.030;2023-03-17T06:42:53;97843.78;;;1.68;100.00
68226;BME280;55045;49.410;11.030;2023-03-17T06:45:56;97839.25;;;1.83;100.00
68226;BME280;55045;49.410;11.030;2023-03-17T06:48:59;97852.13;;;1.78;100.00
68226;BME280;55045;49.410;11.030;2023-03-17T06:52:06;97872.00;;;1.64;100.00
68226;BME280;55045;49.410;11.030;2023-03-17T06:55:10;97861.38;;;1.85;100.00
68226;BME280;55045;49.410;11.030;2023-03-17T06:58:13;97877.44;;;1.92;100.00
68226;BME280;55045;49.410;11.030;2023-03-17T07:01:16;97876.25;;;2.11;100.00
68226;BME280;55045;49.410;11.030;2023-03-17T07:04:20;97877.47;;;2.38;100.00
68226;BME280;55045;49.410;11.030;2023-03-17T07:07:25;97891.53;;;2.14;100.00
68226;BME280;55045;49.410;11.030;2023-03-17T07:10:28;97899.03;;;2.25;100.00
68226;BME280;55045;49.410;11.030;2023-03-17T07:13:32;97898.94;;;2.73;100.00
68226;BME280;55045;49.410;11.030;2023-03-17T07:16:38;97894.78;;;2.69;100.00
68226;BME280;55045;49.410;11.030;2023-03-17T07:19:41;97894.50;;;3.21;100.00
68226;BME280;55045;49.410;11.030;2023-03-17T07:22:46;97888.72;;;3.50;100.00
68226;BME280;55045;49.410;11.030;2023-03-17T07:25:49;97884.75;;;4.05;100.00
68226;BME280;55045;49.410;11.030;2023-03-17T07:28:53;97871.09;;;4.04;100.00
68226;BME280;55045;49.410;11.030;2023-03-17T07:31:56;97872.44;;;4.49;100.00
68226;BME280;55045;49.410;11.030;2023-03-17T07:34:59;97867.16;;;4.55;100.00
68226;BME280;55045;49.410;11.030;2023-03-17T07:38:04;97866.75;;;4.70;100.00
68226;BME280;55045;49.410;11.030;2023-03-17T07:41:07;97863.53;;;5.19;99.95
68226;BME280;55045;49.410;11.030;2023-03-17T07:44:12;97857.59;;;5.45;98.81
68226;BME280;55045;49.410;11.030;2023-03-17T07:47:15;97853.94;;;5.53;100.00
68226;BME280;55045;49.410;11.030;2023-03-17T07:50:19;97850.44;;;5.80;94.86
68226;BME280;55045;49.410;11.030;2023-03-17T07:53:25;97853.44;;;5.94;92.92
68226;BME280;55045;49.410;11.030;2023-03-17T07:56:29;97854.34;;;5.93;97.07
68226;BME280;55045;49.410;11.030;2023-03-17T07:59:32;97860.13;;;6.25;96.54
68226;BME280;55045;49.410;11.030;2023-03-17T08:02:36;97847.44;;;6.19;90.43
68226;BME280;55045;49.410;11.030;2023-03-17T08:05:39;97848.78;;;6.29;97.22
68226;BME280;55045;49.410;11.030;2023-03-17T08:08:44;97838.50;;;6.52;91.82
68226;BME280;55045;49.410;11.030;2023-03-17T08:11:48;97842.88;;;6.74;89.49
68226;BME280;55045;49.410;11.030;2023-03-17T08:14:51;97835.09;;;6.75;91.95
68226;BME280;55045;49.410;11.030;2023-03-17T08:17:56;97750.69;;;6.12;95.54
68226;BME280;55045;49.410;11.030;2023-03-17T08:20:59;97827.41;;;6.27;98.58
68226;BME280;55045;49.410;11.030;2023-03-17T08:24:04;97826.69;;;6.47;96.58
68226;BME280;55045;49.410;11.030;2023-03-17T08:27:08;97820.50;;;7.19;88.46
68226;BME280;55045;49.410;11.030;2023-03-17T08:30:12;97814.25;;;7.25;87.90
68226;BME280;55045;49.410;11.030;2023-03-17T08:33:15;97815.69;;;7.32;90.25
68226;BME280;55045;49.410;11.030;2023-03-17T08:36:19;97808.97;;;7.28;93.56
68226;BME280;55045;49.410;11.030;2023-03-17T08:39:24;97810.53;;;7.32;89.80
68226;BME280;55045;49.410;11.030;2023-03-17T08:42:27;97808.41;;;7.42;86.88
68226;BME280;55045;49.410;11.030;2023-03-17T08:45:30;97805.47;;;7.51;90.40
68226;BME280;55045;49.410;11.030;2023-03-17T08:48:35;97810.03;;;7.44;91.09
68226;BME280;55045;49.410;11.030;2023-03-17T08:51:39;97806.38;;;7.91;87.38
68226;BME280;55045;49.410;11.030;2023-03-17T08:54:44;97799.63;;;7.68;87.35
68226;BME280;55045;49.410;11.030;2023-03-17T08:57:47;97807.84;;;7.96;88.17
68226;BME280;55045;49.410;11.030;2023-03-17T09:00:51;97804.19;;;7.82;90.55
68226;BME280;55045;49.410;11.030;2023-03-17T09:03:55;97796.50;;;8.00;84.00
68226;BME280;55045;49.410;11.030;2023-03-17T09:06:58;97802.09;;;8.30;88.06
68226;BME280;55045;49.410;11.030;2023-03-17T09:10:07;97804.22;;;8.21;88.55
68226;BME280;55045;49.410;11.030;2023-03-17T09:13:12;97803.50;;;8.17;90.53
68226;BME280;55045;49.410;11.030;2023-03-17T09:16:15;97795.84;;;8.55;83.43
68226;BME280;55045;49.410;11.030;2023-03-17T09:19:19;97791.00;;;8.28;88.55
68226;BME280;55045;49.410;11.030;2023-03-17T09:22:22;97794.41;;;8.29;90.22
68226;BME280;55045;49.410;11.030;2023-03-17T09:25:27;97785.50;;;8.55;90.26
68226;BME280;55045;49.410;11.030;2023-03-17T09:28:30;97788.09;;;8.92;89.03
68226;BME280;55045;49.410;11.030;2023-03-17T09:31:34;97789.69;;;8.57;80.77
68226;BME280;55045;49.410;11.030;2023-03-17T09:34:38;97785.59;;;8.72;83.25
68226;BME280;55045;49.410;11.030;2023-03-17T09:37:41;97782.66;;;8.80;84.60
68226;BME280;55045;49.410;11.030;2023-03-17T09:40:48;97780.94;;;8.98;78.99
68226;BME280;55045;49.410;11.030;2023-03-17T09:44:01;97779.34;;;9.31;83.38
68226;BME280;55045;49.410;11.030;2023-03-17T09:47:21;97759.59;;;9.11;78.47
68226;BME280;55045;49.410;11.030;2023-03-17T09:50:31;97765.19;;;9.21;78.22
68226;BME280;55045;49.410;11.030;2023-03-17T09:53:44;97771.72;;;9.28;80.82
68226;BME280;55045;49.410;11.030;2023-03-17T09:56:56;97779.09;;;9.88;78.58
68226;BME280;55045;49.410;11.030;2023-03-17T10:00:04;97772.63;;;9.96;77.61
68226;BME280;55045;49.410;11.030;2023-03-17T10:03:09;97773.00;;;10.06;78.96
68226;BME280;55045;49.410;11.030;2023-03-17T10:06:32;97774.78;;;10.38;78.85
68226;BME280;55045;49.410;11.030;2023-03-17T10:09:41;97779.25;;;10.02;79.12
68226;BME280;55045;49.410;11.030;2023-03-17T10:12:53;97773.75;;;10.41;76.26
68226;BME280;55045;49.410;11.030;2023-03-17T10:16:01;97769.00;;;10.16;78.17
68226;BME280;55045;49.410;11.030;2023-03-17T10:19:11;97732.69;;;10.00;81.42
68226;BME280;55045;49.410;11.030;2023-03-17T10:22:23;97767.16;;;10.51;74.79
68226;BME280;55045;49.410;11.030;2023-03-17T10:25:31;97763.75;;;10.18;81.73
68226;BME280;55045;49.410;11.030;2023-03-17T10:28:36;97764.69;;;10.65;80.84
68226;BME280;55045;49.410;11.030;2023-03-17T10:34:16;97760.72;;;11.21;73.53
68226;BME280;55045;49.410;11.030;2023-03-17T10:37:22;97753.91;;;11.35;75.78
68226;BME280;55045;49.410;11.030;2023-03-17T10:40:29;97762.06;;;11.13;73.14
68226;BME280;55045;49.410;11.030;2023-03-17T10:43:36;97754.13;;;11.00;75.01
68226;BME280;55045;49.410;11.030;2023-03-17T10:46:51;97746.75;;;11.08;71.75
68226;BME280;55045;49.410;11.030;2023-03-17T10:49:58;97733.31;;;11.32;72.65
68226;BME280;55045;49.410;11.030;2023-03-17T10:53:05;97738.22;;;11.96;70.18
68226;BME280;55045;49.410;11.030;2023-03-17T10:56:17;97737.75;;;11.60;69.80
68226;BME280;55045;49.410;11.030;2023-03-17T10:59:26;97730.25;;;11.69;72.16
68226;BME280;55045;49.410;11.030;2023-03-17T11:02:42;97722.69;;;11.50;75.80
68226;BME280;55045;49.410;11.030;2023-03-17T11:05:55;97727.44;;;11.88;69.49
68226;BME280;55045;49.410;11.030;2023-03-17T11:09:05;97727.06;;;12.23;74.57
68226;BME280;55045;49.410;11.030;2023-03-17T11:12:21;97713.81;;;12.27;66.86
68226;BME280;55045;49.410;11.030;2023-03-17T11:15:31;97720.75;;;12.13;65.87
68226;BME280;55045;49.410;11.030;2023-03-17T11:18:37;97710.06;;;12.31;65.62
68226;BME280;55045;49.410;11.030;2023-03-17T11:21:48;97703.41;;;12.68;68.13
68226;BME280;55045;49.410;11.030;2023-03-17T11:24:59;97708.22;;;12.75;67.71
68226;BME280;55045;49.410;11.030;2023-03-17T11:28:15;97684.78;;;12.89;64.77
68226;BME280;55045;49.410;11.030;2023-03-17T11:31:25;97678.91;;;12.85;64.72
68226;BME280;55045;49.410;11.030;2023-03-17T11:34:49;97675.66;;;13.09;61.91
68226;BME280;55045;49.410;11.030;2023-03-17T11:38:08;97683.22;;;13.26;62.12
68226;BME280;55045;49.410;11.030;2023-03-17T11:41:29;97677.91;;;13.27;69.44
68226;BME280;55045;49.410;11.030;2023-03-17T11:44:49;97677.88;;;13.80;68.46
68226;BME280;55045;49.410;11.030;2023-03-17T11:48:06;97671.09;;;13.90;62.19
68226;BME280;55045;49.410;11.030;2023-03-17T11:51:18;97667.31;;;13.94;61.34
68226;BME280;55045;49.410;11.030;2023-03-17T11:54:33;97673.25;;;14.22;57.60
68226;BME280;55045;49.410;11.030;2023-03-17T11:57:45;97668.88;;;13.97;64.74
68226;BME280;55045;49.410;11.030;2023-03-17T12:00:53;97664.28;;;14.13;61.37
68226;BME280;55045;49.410;11.030;2023-03-17T12:04:08;97647.16;;;14.22;64.35
68226;BME280;55045;49.410;11.030;2023-03-17T12:07:18;97646.38;;;14.82;59.64
68226;BME280;55045;49.410;11.030;2023-03-17T12:10:27;97568.69;;;14.25;59.18
68226;BME280;55045;49.410;11.030;2023-03-17T12:13:37;97641.91;;;14.95;50.68
68226;BME280;55045;49.410;11.030;2023-03-17T12:16:47;97642.47;;;14.87;55.13
68226;BME280;55045;49.410;11.030;2023-03-17T12:20:00;97637.19;;;15.11;52.01
68226;BME280;55045;49.410;11.030;2023-03-17T12:23:13;97633.13;;;14.96;56.81
68226;BME280;55045;49.410;11.030;2023-03-17T12:26:27;97636.00;;;14.56;55.93
68226;BME280;55045;49.410;11.030;2023-03-17T12:29:41;97622.88;;;14.82;57.08
68226;BME280;55045;49.410;11.030;2023-03-17T12:32:55;97619.00;;;14.98;51.55
68226;BME280;55045;49.410;11.030;2023-03-17T12:36:03;97587.94;;;14.48;48.72
68226;BME280;55045;49.410;11.030;2023-03-17T12:39:08;97611.25;;;14.86;49.07
68226;BME280;55045;49.410;11.030;2023-03-17T12:42:24;97595.03;;;14.69;50.42
68226;BME280;55045;49.410;11.030;2023-03-17T12:45:53;97596.84;;;14.32;58.72
68226;BME280;55045;49.410;11.030;2023-03-17T12:53:03;97601.91;;;14.70;57.17
68226;BME280;55045;49.410;11.030;2023-03-17T12:56:17;97589.81;;;14.93;52.67
68226;BME280;55045;49.410;11.030;2023-03-17T12:59:24;97582.78;;;14.94;51.90
68226;BME280;55045;49.410;11.030;2023-03-17T13:02:35;97577.88;;;14.54;60.79
68226;BME280;55045;49.410;11.030;2023-03-17T13:05:44;97580.81;;;14.74;59.74
68226;BME280;55045;49.410;11.030;2023-03-17T13:08:50;97574.31;;;15.14;57.33
68226;BME280;55045;49.410;11.030;2023-03-17T13:11:54;97572.53;;;15.26;52.62
68226;BME280;55045;49.410;11.030;2023-03-17T13:14:59;97573.81;;;15.09;53.72
68226;BME280;55045;49.410;11.030;2023-03-17T13:18:28;97565.69;;;14.90;61.01
68226;BME280;55045;49.410;11.030;2023-03-17T13:21:51;97551.53;;;15.39;51.85
68226;BME280;55045;49.410;11.030;2023-03-17T13:25:13;97550.38;;;15.43;49.55
68226;BME280;55045;49.410;11.030;2023-03-17T13:28:24;97550.38;;;15.54;50.67
68226;BME280;55045;49.410;11.030;2023-03-17T13:31:34;97546.31;;;15.50;50.48
68226;BME280;55045;49.410;11.030;2023-03-17T13:34:44;97562.81;;;15.28;51.97
68226;BME280;55045;49.410;11.030;2023-03-17T13:38:03;97548.66;;;15.31;50.72
68226;BME280;55045;49.410;11.030;2023-03-17T13:41:26;97551.06;;;15.22;52.78
68226;BME280;55045;49.410;11.030;2023-03-17T13:44:46;97549.84;;;15.26;50.19
68226;BME280;55045;49.410;11.030;2023-03-17T13:48:24;97547.81;;;15.08;54.97
68226;BME280;55045;49.410;11.030;2023-03-17T13:51:31;97547.56;;;15.11;58.64
68226;BME280;55045;49.410;11.030;2023-03-17T13:54:40;97542.94;;;15.03;57.16
68226;BME280;55045;49.410;11.030;2023-03-17T13:57:53;97540.75;;;15.43;48.50
68226;BME280;55045;49.410;11.030;2023-03-17T14:01:01;97536.06;;;15.02;58.69
68226;BME280;55045;49.410;11.030;2023-03-17T14:04:17;97529.22;;;15.46;49.14
68226;BME280;55045;49.410;11.030;2023-03-17T14:07:23;97519.22;;;15.28;53.12
68226;BME280;55045;49.410;11.030;2023-03-17T14:10:30;97515.28;;;15.12;58.67
68226;BME280;55045;49.410;11.030;2023-03-17T14:13:37;97527.56;;;15.56;50.71
68226;BME280;55045;49.410;11.030;2023-03-17T14:16:49;97515.03;;;15.04;60.11
68226;BME280;55045;49.410;11.030;2023-03-17T14:20:05;97510.91;;;15.46;51.73
68226;BME280;55045;49.410;11.030;2023-03-17T14:23:10;97510.22;;;15.33;55.33
68226;BME280;55045;49.410;11.030;2023-03-17T14:26:13;97512.81;;;15.55;56.63
68226;BME280;55045;49.410;11.030;2023-03-17T14:29:19;97509.00;;;15.14;63.81
68226;BME280;55045;49.410;11.030;2023-03-17T14:32:23;97507.09;;;15.50;58.46
68226;BME280;55045;49.410;11.030;2023-03-17T14:35:34;97506.16;;;15.51;55.46
68226;BME280;55045;49.410;11.030;2023-03-17T14:38:45;97498.44;;;15.38;60.73
68226;BME280;55045;49.410;11.030;2023-03-17T14:42:00;97492.38;;;15.71;50.96
68226;BME280;55045;49.410;11.030;2023-03-17T14:45:05;97499.28;;;15.61;53.83
68226;BME280;55045;49.410;11.030;2023-03-17T14:48:12;97498.81;;;15.67;53.82
68226;BME280;55045;49.410;11.030;2023-03-17T14:51:24;97491.53;;;15.60;52.75
68226;BME280;55045;49.410;11.030;2023-03-17T14:54:30;97492.41;;;15.60;54.24
68226;BME280;55045;49.410;11.030;2023-03-17T14:57:36;97486.56;;;15.56;54.28
68226;BME280;55045;49.410;11.030;2023-03-17T15:00:43;97483.38;;;15.64;55.03
68226;BME280;55045;49.410;11.030;2023-03-17T15:03:52;97480.88;;;15.63;55.02
68226;BME280;55045;49.410;11.030;2023-03-17T15:07:00;97454.09;;;14.81;63.12
68226;BME280;55045;49.410;11.030;2023-03-17T15:10:04;97468.03;;;15.48;55.65
68226;BME280;55045;49.410;11.030;2023-03-17T15:13:10;97479.31;;;15.49;56.76
68226;BME280;55045;49.410;11.030;2023-03-17T15:16:17;97423.03;;;15.34;56.10
68226;BME280;55045;49.410;11.030;2023-03-17T15:19:24;97466.13;;;15.62;53.99
68226;BME280;55045;49.410;11.030;2023-03-17T15:22:39;97464.34;;;15.06;62.28
68226;BME280;55045;49.410;11.030;2023-03-17T15:25:44;97464.34;;;15.17;62.44
68226;BME280;55045;49.410;11.030;2023-03-17T15:28:49;97463.38;;;15.52;54.06
68226;BME280;55045;49.410;11.030;2023-03-17T15:31:54;97459.84;;;15.19;57.56
68226;BME280;55045;49.410;11.030;2023-03-17T15:35:02;97458.78;;;15.44;54.99
68226;BME280;55045;49.410;11.030;2023-03-17T15:38:10;97455.22;;;15.34;55.32
68226;BME280;55045;49.410;11.030;2023-03-17T15:41:13;97452.63;;;15.23;57.02
68226;BME280;55045;49.410;11.030;2023-03-17T15:44:16;97463.66;;;15.26;55.02
68226;BME280;55045;49.410;11.030;2023-03-17T15:47:21;97458.25;;;14.72;64.01
68226;BME280;55045;49.410;11.030;2023-03-17T15:50:27;97427.34;;;15.12;57.01
68226;BME280;55045;49.410;11.030;2023-03-17T15:53:33;97466.84;;;15.41;55.92
68226;BME280;55045;49.410;11.030;2023-03-17T15:56:36;97458.44;;;15.26;57.71
68226;BME280;55045;49.410;11.030;2023-03-17T15:59:40;97457.09;;;15.32;56.20
68226;BME280;55045;49.410;11.030;2023-03-17T16:02:44;97445.81;;;15.09;58.11
68226;BME280;55045;49.410;11.030;2023-03-17T16:05:48;97458.66;;;15.35;58.18
68226;BME280;55045;49.410;11.030;2023-03-17T16:08:54;97460.09;;;15.27;57.98
68226;BME280;55045;49.410;11.030;2023-03-17T16:11:57;97447.97;;;15.26;60.44
68226;BME280;55045;49.410;11.030;2023-03-17T16:15:00;97449.97;;;15.12;60.05
68226;BME280;55045;49.410;11.030;2023-03-17T16:18:20;97449.88;;;15.02;61.79
68226;BME280;55045;49.410;11.030;2023-03-17T16:21:25;97452.00;;;14.97;61.97
68226;BME280;55045;49.410;11.030;2023-03-17T16:24:29;97442.50;;;14.85;63.95
68226;BME280;55045;49.410;11.030;2023-03-17T16:27:33;97436.09;;;14.89;64.28